Ponta Pelada Airport
SBMN : rendu visible

Aérodrome :











RETROUVEZ-NOUS SUR...

 
LOGIN :

S'inscrire | Disclaimer

   EN    FR    IT 

 









Légende :    VFR   VFR Marginal   IFR   IFR Intensif   IFR Très Intensif
Visi : 
Plafond : 
>= 8 km
>= 3000ft
5 à 8 km
1000 à 3000 ft
1500m à 5 km
500 à 1000 ft
800 à 1500m
200 à 500 ft
< 800m
< 200 ft
Symboles :   Orages  Brouillard  Fortes neiges  Fortes précipitations  Vent > 20 kt






- Altitude de l'aérodrome : 267 ft
- Code IATA : PLL


SBMN - Ponta Pelada

DERNIER METAR :
  • 022200Z 05005KT 9999 FEW020 FEW025TCU BKN090 26/24 Q1011

METARs EXPIRÉS :
  • 022100Z 05004KT 9999 VCSH SCT020 FEW025TCU BKN090 27/24 Q1011
  • 022000Z 03007KT 9999 VCSH BKN020 FEW025TCU BKN090 27/24 Q1011

TAF TAF SBMN
Valide du 02 à 18h jusqu'au 03 à 06h UTC


021500Z 0218/0306 09005KT 9999 SCT020 FEW025TCU TX30/0218Z TN25/0305Z
BECMG 0222/0224 03006KT SCT015
BECMG 0303/0305 01005KT FEW010 RMK PEQ
FIR SBAZ / Amérique du Sud



MET'MAP, la Météo Aéronautique d'un coup d'oeil ! - Copyright ORBIFLY Décembre 2007 - Disclaimer

ORBIFLY MET'MAP TEAM :

Programmation & Développement : Alexandra Zaïnal
Sur une idée originale de : Baudouin d'Aumeries
Assistance à la programmation : Marc-Olivier Méhu
Soutien technique & logistique : Manuel Goepfert

Contact : metmap@orbifly.com




SOURCES & CREDITS :

   NOAA       Earth
Advisory